logo dgac
Miércoles 05 de Octubre del 2022
Buscar por aerodromo o helipuerto
Ingrese nombre de aeródromo, localidad o designador OACI:
TAF: TAF SCCY 041023Z 0412/0500 03005KT 8000 -SHRA FEW020 BKN040 TN07/0412Z TX11/0418Z BECMG 0413/0415 28008KT 9999 NSW SCT040 TEMPO 0416/0419 8000 -SHRA BKN035
TAF del 04/10/2022 a las 10:23 UTC
Para mayor información visite www.meteochile.cl
Período de validez: desde el 04 a las 12:00 UTC hasta el 05 a las 00:00 UTC
Viento: dirección 030 grados, velocidad 5 nudos
Visibilidad: 8000 metros
Débil ChubascosLluvia
Nubes: Escasa nubosidad a 2000 pies sobre el nivel del aeródromo
Nubes: Nublado a 4000 pies sobre el nivel del aeródromo
Temperatura mínima: 7ºC el 04 a las 12:00 UTC
Temperatura máxima: 11ºC el 04 a las 18:00 UTC
Se espera un cambio entre las 13:00 UTC del 04 y las 15:00 UTC del 04, :
Viento: dirección 280 grados, velocidad 8 nudos
Visibilidad: 10 km o más
No significant weather phenomena are observed at present
Nubes: Nubosidad parcial a 4000 pies sobre el nivel del aeródromo
Se espera en forma temporal entre las 16:00 UTC del 04 y las 19:00 UTC del 04:
Visibilidad: 8000 metros
Débil ChubascosLluvia
Nubes: Nublado a 3500 pies sobre el nivel del aeródromo